• Join FlightAware (Why Join?)
  • Login
  • US Flag 
04:04AM EST


 

Airport Tracker/Info


-or-


 

Live Flight TrackerFlight Track Log ✈ EJA930 ✈ 27-Jun-2013 ✈ KTEB - KASE

Flight Track Log - Related Links

Times and Time Zones

All times are in EDT time to prevent confusion due to time zone crossing. See the EJA930 flight status page for this flight to view local times or setup timezone preferences in your user account.

Time Position Orientation Groundspeed Altitude Reporting Facility
EDT Latitude Longitude Course Direction KTS MPH feet Rate Location/Type
09:17AM 40.8167 -74.1167 270° West 210 242 1,500  Level New York TRACON
09:18AM 40.8167 -74.2000 270° West 215 247 2,900 1,920 Climbing New York TRACON
09:20AM 40.8322 -74.3528 278° West 259 298 7,100 2,460 Climbing New York Center
09:21AM 40.8414 -74.4631 276° West 275 316 10,000 2,340 Climbing New York Center
09:22AM 40.8364 -74.5533 266° West 275 316 11,900 1,800 Climbing New York Center
09:23AM 40.8000 -75.0824 270° West  Level FlightAware Approximate
09:23AM 40.8303 -74.6792 266° West 292 336 13,600  Level New York Center
09:24AM 40.8247 -74.7831 266° West 318 366 15,100 1,500 Climbing New York Center
09:25AM 40.8158 -74.9194 265° West 330 380 16,700 1,560 Climbing New York Center
09:26AM 40.8097 -75.0317 266° West 340 391 18,300 1,620 Climbing New York Center
09:27AM 40.7961 -75.1733 263° West 352 405 20,000 1,440 Climbing New York Center
09:28AM 40.7692 -75.2839 252° West 357 411 21,200 1,440 Climbing New York Center
09:29AM 40.7203 -75.4147 244° Southwest 362 417 22,900 1,620 Climbing New York Center
09:30AM 40.6758 -75.5350 244° Southwest 368 423 24,500 1,560 Climbing New York Center
09:31AM 40.6314 -75.6578 245° Southwest 378 435 26,100 1,500 Climbing New York Center
09:32AM 40.5914 -75.7669 244° Southwest 372 428 27,600 1,560 Climbing New York Center
09:33AM 40.5417 -75.9025 244° Southwest 372 428 29,200 1,320 Climbing New York Center
09:34AM 40.4950 -76.0164 242° Southwest 377 434 30,200 1,080 Climbing New York Center
09:35AM 40.4475 -76.1492 245° Southwest 388 447 31,400 1,140 Climbing New York Center
09:36AM 40.3975 -76.2844 244° Southwest 410 472 32,600 1,200 Climbing New York Center
09:37AM 40.3633 -76.4289 253° West 415 478 33,800 1,200 Climbing New York Center
09:38AM 40.3539 -76.5833 265° West 421 484 35,000 1,140 Climbing New York Center
09:39AM 40.3442 -76.7378 265° West 426 490 36,200 1,140 Climbing New York Center
09:40AM 40.3339 -76.8947 265° West 431 496 37,300 1,140 Climbing New York Center
09:41AM 40.3256 -77.0547 266° West 436 502 38,500 1,260 Climbing New York Center
09:42AM 40.3131 -77.2114 264° West 441 507 39,800 420 Climbing New York Center
09:44AM 40.2911 -77.6133 266° West 449 517 40,000 60 Climbing Cleveland Center
09:45AM 40.2767 -77.7881 264° West 471 542 40,000  Level Cleveland Center
09:46AM 40.2603 -77.9683 263° West 490 564 40,000  Level Cleveland Center
09:47AM 40.2475 -78.1431 265° West 490 564 40,000  Level Cleveland Center
09:48AM 40.2344 -78.3175 264° West 490 564 40,000  Level Cleveland Center
09:49AM 40.2211 -78.4922 264° West 490 564 40,000  Level Cleveland Center
09:50AM 40.2075 -78.6664 264° West 490 564 40,000  Level Cleveland Center
09:51AM 40.1936 -78.8436 264° West 490 564 40,000  Level Cleveland Center
09:52AM 40.1772 -79.0178 263° West 490 564 40,000  Level Cleveland Center
09:53AM 40.1628 -79.1894 264° West 484 557 40,000  Level Cleveland Center
09:54AM 40.1542 -79.3444 266° West 484 557 40,000  Level Cleveland Center
09:55AM 40.1372 -79.5158 263° West 484 557 40,000  Level Cleveland Center
09:57AM 40.1172 -79.6915 262° West  Level FlightAware Approximate
09:57AM 40.1086 -79.8583 262° West 484 557 40,000  Level Cleveland Center
09:58AM 40.0889 -80.0511 262° West 484 557 40,000  Level Cleveland Center
09:59AM 40.0708 -80.2194 262° West 476 548 40,000  Level Cleveland Center
10:00AM 40.0608 -80.3742 265° West 481 554 40,000  Level Cleveland Center
10:01AM 40.0464 -80.5450 264° West 481 554 40,000  Level Cleveland Center
10:03AM 40.0139 -80.8644 263° West 484 557 40,000  Level Indianapolis Center
10:04AM 40.0125 -81.0697 270° West 484 557 40,000  Level Indianapolis Center
10:05AM 40.0100 -81.2469 269° West 484 557 40,000  Level Indianapolis Center
10:06AM 40.0067 -81.4256 269° West 487 560 40,000  Level Indianapolis Center
10:07AM 40.0036 -81.6033 269° West 485 558 40,000  Level Indianapolis Center
10:09AM 39.9989 -81.7975 268° West 491 565 40,000  Level Indianapolis Center
10:10AM 39.9953 -81.9756 269° West 488 562 40,000  Level Indianapolis Center
10:11AM 39.9911 -82.1539 268° West 489 563 40,000  Level Indianapolis Center
10:12AM 39.9861 -82.3331 268° West 490 564 40,000  Level Indianapolis Center
10:13AM 39.9822 -82.5106 268° West 489 563 40,000  Level Indianapolis Center
10:14AM 39.9761 -82.6889 267° West 489 563 40,000  Level Indianapolis Center
10:15AM 39.9700 -82.8978 268° West 492 566 40,000  Level Indianapolis Center
10:16AM 39.9653 -83.0778 268° West 493 567 40,000  Level Indianapolis Center
10:17AM 39.9617 -83.2550 269° West 490 564 40,000  Level Indianapolis Center
10:18AM 39.9567 -83.4286 268° West 486 559 40,000  Level Indianapolis Center
10:19AM 39.9497 -83.6014 267° West 496 571 40,000  Level Indianapolis Center
10:20AM 39.9408 -83.8039 267° West 485 558 40,000  Level Indianapolis Center
10:21AM 39.9336 -83.9811 267° West 487 560 40,000  Level Indianapolis Center
10:22AM 39.9269 -84.1581 267° West 488 562 40,000  Level Indianapolis Center
10:23AM 39.9186 -84.3375 267° West 492 566 40,000  Level Indianapolis Center
10:24AM 39.9122 -84.5144 267° West 485 558 40,000  Level Indianapolis Center
10:25AM 39.9031 -84.6889 266° West 481 554 40,000  Level Indianapolis Center
10:26AM 39.8950 -84.8619 267° West 476 548 40,000  Level Indianapolis Center
10:27AM 39.8853 -85.0617 266° West 478 550 40,000  Level Indianapolis Center
10:28AM 39.8778 -85.2358 267° West 481 554 40,000  Level Indianapolis Center
10:29AM 39.8683 -85.4083 266° West 480 552 40,000  Level Indianapolis Center
10:30AM 39.8589 -85.5808 266° West 480 552 40,000  Level Indianapolis Center
10:31AM 39.8497 -85.7514 266° West 476 548 40,000  Level Indianapolis Center
10:32AM 39.8394 -85.9542 266° West 472 543 40,000  Level Indianapolis Center
10:33AM 39.8306 -86.1219 266° West 470 541 40,000  Level Indianapolis Center
10:34AM 39.8175 -86.2939 264° West 475 547 40,000  Level Indianapolis Center
10:35AM 39.8167 -86.4536 270° West 473 544 40,000  Level Indianapolis Center
10:36AM 39.8206 -86.6561 271° West 471 542 40,000  Level Indianapolis Center
10:37AM 39.8236 -86.8236 271° West 468 539 40,000  Level Indianapolis Center
10:38AM 39.8264 -86.9936 271° West 471 542 40,000  Level Indianapolis Center
10:40AM 39.8294 -87.1625 271° West 470 541 40,000  Level Indianapolis Center
10:41AM 39.8311 -87.3331 271° West 472 543 40,000  Level Indianapolis Center
10:42AM 39.8344 -87.5372 271° West 472 543 40,000  Level Indianapolis Center
10:43AM 39.8369 -87.7081 271° West 473 544 40,000  Level Indianapolis Center
10:44AM 39.8372 -87.8797 270° West 475 547 40,000  Level Indianapolis Center
10:45AM 39.8389 -88.0506 271° West 474 545 40,000  Level Indianapolis Center
10:46AM 39.8406 -88.2211 271° West 473 544 40,000  Level Indianapolis Center
10:47AM 39.8414 -88.3922 270° West 474 545 40,000  Level Indianapolis Center
10:47AM 39.8411 -88.5017 270° West 472 543 40,000  Level Kansas City Center
10:48AM 39.8444 -88.6725 272° West 472 543 40,000  Level Kansas City Center
10:49AM 39.8547 -88.8411 275° West 469 540 40,000  Level Kansas City Center
10:50AM 39.8631 -89.0094 274° West 467 537 40,000  Level Kansas City Center
10:51AM 39.8717 -89.1792 274° West 467 537 40,000  Level Kansas City Center
10:52AM 39.8797 -89.3497 274° West 469 540 40,000  Level Kansas City Center
10:53AM 39.8889 -89.5161 274° West 466 536 40,000  Level Kansas City Center
10:55AM 39.8989 -89.7192 274° West 466 536 40,000  Level Kansas City Center
10:56AM 39.9000 -89.8857 270° West  Level FlightAware Approximate
11:03AM 39.9743 -91.0473 275° West  Level FlightAware Approximate
11:03AM 39.9847 -91.0650 275° West 461 531 40,000  Level Kansas City Center
11:04AM 39.9843 -91.2134 275° West  Level FlightAware Approximate
11:04AM 39.9956 -91.2306 275° West 461 531 40,000  Level Kansas City Center
11:05AM 39.9940 -91.3796 274° West  Level FlightAware Approximate
11:05AM 40.0061 -91.3950 275° West 460 529 40,000  Level Kansas City Center
11:06AM 40.0041 -91.5458 275° West  Level FlightAware Approximate
11:06AM 40.0161 -91.5603 275° West 460 529 40,000  Level Kansas City Center
11:07AM 40.0148 -91.7119 275° West  Level FlightAware Approximate
11:07AM 40.0258 -91.7256 274° West 461 531 40,000  Level Kansas City Center
11:08AM 40.0252 -91.8781 275° West  Level FlightAware Approximate
11:08AM 40.0375 -91.9236 274° West 460 529 40,000  Level Kansas City Center
11:09AM 40.0469 -92.0897 274° West 461 531 40,000  Level Kansas City Center
11:10AM 40.0553 -92.2561 274° West 461 531 40,000 60 Level Kansas City Center
11:11AM 40.0639 -92.4411 274° West 461 531 40,200 480 Climbing Kansas City Center
11:12AM 40.0725 -92.6000 274° West 460 529 41,000 780 Climbing Kansas City Center
11:13AM 40.0825 -92.7808 274° West 450 518 41,900 720 Climbing Kansas City Center
11:14AM 40.0903 -92.9328 274° West 443 510 42,600 480 Climbing Kansas City Center
11:15AM 40.0969 -93.1044 273° West 439 505 43,000 180 Climbing Kansas City Center
11:16AM 40.1061 -93.2669 274° West 447 514 43,000  Level Kansas City Center
11:17AM 40.1117 -93.4286 273° West 448 516 43,000  Level Kansas City Center
11:18AM 40.1197 -93.5844 274° West 439 505 43,000  Level Kansas City Center
11:19AM 40.1258 -93.7375 273° West 429 494 43,000  Level Kansas City Center
11:20AM 40.1331 -93.9253 273° West 433 498 43,000 600 Level Kansas City Center
11:21AM 40.1572 -94.0756 282° West 427 491 44,300 960 Climbing Kansas City Center
11:22AM 40.1858 -94.2264 284° West 409 471 45,000 300 Climbing Kansas City Center
11:23AM 40.2122 -94.3678 284° West 416 479 45,000  Level Kansas City Center
11:24AM 40.2489 -94.5386 286° West 432 497 45,100 60 Climbing Kansas City Center
11:25AM 40.2800 -94.6836 286° West 435 501 45,200 660 Climbing Kansas City Center
11:26AM 40.3178 -94.8525 286° West 434 499 46,500 900 Climbing Kansas City Center
11:27AM 40.3444 -94.9761 286° West 423 487 47,000 120 Climbing Minneapolis Center
11:29AM 40.3733 -95.2878 277° West 433 498 47,000  Level Minneapolis Center
11:30AM 40.3856 -95.4831 275° West 444 511 47,000  Level Minneapolis Center
11:31AM 40.3944 -95.6464 274° West 447 514 47,000  Level Minneapolis Center
11:32AM 40.3881 -95.8139 267° West 454 522 47,000  Level Minneapolis Center
11:33AM 40.3814 -95.9819 267° West 459 528 47,000  Level Minneapolis Center
11:35AM 40.3739 -96.1517 267° West 462 532 47,000  Level Minneapolis Center
11:36AM 40.3667 -96.3236 267° West 468 539 47,000  Level Minneapolis Center
11:37AM 40.3600 -96.4958 267° West 471 542 47,000  Level Minneapolis Center
11:38AM 40.3508 -96.7047 267° West 475 547 47,000  Level Minneapolis Center
11:39AM 40.3428 -96.8794 267° West 478 550 47,000  Level Minneapolis Center
11:40AM 40.3353 -97.0558 267° West 482 555 47,000  Level Minneapolis Center
11:41AM 40.3258 -97.2300 266° West 481 554 47,000  Level Minneapolis Center
11:42AM 40.3175 -97.4097 267° West 481 554 47,000  Level Minneapolis Center
11:43AM 40.3083 -97.5836 266° West 478 550 47,000 -180 Level Minneapolis Center
11:44AM 40.2997 -97.7583 266° West 479 551 46,700 -540 Descending Minneapolis Center
11:45AM 40.2875 -97.9706 266° West 484 557 46,000 -720 Descending Minneapolis Center
11:46AM 40.2764 -98.1525 265° West 494 568 45,300 -720 Descending Minneapolis Center
11:47AM 40.2658 -98.3375 266° West 503 579 44,600 -780 Descending Minneapolis Center
11:48AM 40.2550 -98.5250 266° West 511 588 43,800 -780 Descending Minneapolis Center
11:49AM 40.2431 -98.7106 265° West 511 588 43,100 -420 Descending Minneapolis Center
11:50AM 40.2322 -98.8919 266° West 503 579 43,000 -60 Descending Minneapolis Center
11:51AM 40.2200 -99.0728 265° West 498 573 43,000  Level Minneapolis Center
11:52AM 40.2086 -99.2561 265° West 502 578 43,000 -300 Level Denver Center
11:53AM 40.1958 -99.4425 265° West 510 587 42,500 -780 Descending Denver Center
11:54AM 40.1831 -99.6272 265° West 510 587 41,400 -720 Descending Denver Center
11:55AM 40.1706 -99.8072 265° West 499 574 41,000 -240 Descending Denver Center
11:56AM 40.1550 -100.0139 264° West 506 582 41,000  Level Denver Center
11:57AM 40.1425 -100.1881 265° West 504 580 41,000  Level Denver Center
11:58AM 40.1292 -100.3647 264° West 505 581 41,000  Level Denver Center
11:59AM 40.1131 -100.5711 264° West 509 586 41,000  Level Denver Center
12:00PM 40.0986 -100.7478 264° West 509 586 41,000  Level Denver Center
12:01PM 40.0811 -100.9525 264° West 507 583 41,000  Level Denver Center
12:02PM 40.0669 -101.1314 264° West 512 589 41,000  Level Denver Center
12:03PM 40.0494 -101.3389 264° West 514 592 41,000  Level Denver Center
12:04PM 40.0347 -101.5164 264° West 514 592 41,000  Level Denver Center
12:06PM 40.0172 -101.7239 264° West 513 590 41,000  Level Denver Center
12:07PM 39.9978 -101.9297 263° West 512 589 41,000 -420 Level Denver Center
12:08PM 39.9792 -102.1372 263° West 516 594 40,200 -540 Descending Denver Center
12:09PM 39.9628 -102.3167 263° West 519 597 40,000 -120 Descending Denver Center
12:10PM 39.9428 -102.5219 263° West 515 593 40,000  Level Denver Center
12:11PM 39.9258 -102.6975 263° West 511 588 40,000  Level Denver Center
12:12PM 39.9050 -102.9022 263° West 510 587 40,000  Level Denver Center
12:13PM 39.8883 -103.0797 263° West 515 593 40,000  Level Denver Center
12:14PM 39.8678 -103.2825 263° West 508 585 40,000  Level Denver Center
12:15PM 39.8500 -103.4508 262° West 509 586 40,000  Level Denver Center
12:16PM 39.8283 -103.6561 262° West 513 590 40,000  Level Denver Center
12:17PM 39.8075 -103.8492 262° West 527 606 40,000  Level Denver Center
12:18PM 39.7889 -104.0311 262° West 510 587 40,000  Level Denver Center
12:19PM 39.7661 -104.2256 261° West 506 582 40,000 -60 Level Denver Center
12:20PM 39.7461 -104.4078 262° West 508 585 39,900 -780 Descending Denver Center
12:21PM 39.7239 -104.5914 261° West 516 594 38,400 -1,440 Descending Denver Center
12:22PM 39.6994 -104.7958 261° West 526 605 36,700 -1,560 Descending Denver Center
12:23PM 39.6753 -105.0242 262° West 517 595 34,900 -1,560 Descending Denver Center
12:24PM 39.6589 -105.1661 262° West 517 595 33,500 -1,860 Descending Denver Center
12:25PM 39.6278 -105.4097 261° West 523 602 31,100 -2,160 Descending Denver Center
12:26PM 39.6047 -105.5964 261° West 524 603 29,100 -2,040 Descending Denver Center
12:27PM 39.5817 -105.7783 261° West 514 592 26,900 -2,280 Descending Denver Center
12:29PM 39.5581 -105.9683 261° West 493 567 24,400 -2,460 Descending Denver Center
12:30PM 39.5367 -106.1369 261° West 476 548 21,900 -1,980 Descending Denver Center
12:31PM 39.5169 -106.3022 261° West 466 536 20,300 -960 Descending Denver Center
12:32PM 39.4961 -106.4603 260° West 450 518 20,000 -480 Descending Denver Center
12:33PM 39.4756 -106.6181 260° West 389 448 19,400 -1,200 Descending Denver Center
12:34PM 39.4186 -106.7100 231° Southwest 345 397 17,600 -1,260 Descending Denver Center
12:35PM 39.3883 -106.7922 245° Southwest 300 345 16,800 -1,200 Descending Denver Center
12:36PM 39.4539 -106.8408 330° Northwest 249 287 15,200 -1,800 Descending Denver Center
12:37PM 39.4492 -106.9053 265° West 232 267 13,100 -1,800 Descending Denver Center
12:38PM 39.3792 -106.9028 178° South 223 257 11,500 -1,500 Descending Denver Center
12:39PM 39.3275 -106.8994 177° South 205 236 10,000 -1,380 Descending Denver Center
12:40PM 39.2814 -106.8953 176° South 185 213 8,700 -900 Descending Denver Center
12:41PM 39.2461 -106.8831 165° South 167 192 8,200 -540 Descending Denver Center